Time;durP1;ratioP1;P1;durP2;ratioP2;P2;SDS_P1;SDS_P2;PMS_P1;PMS_P2;Temp;Humidity;BMP_temperature;BMP_pressure;BME280_temperature;BME280_humidity;BME280_pressure;Samples;Min_cycle;Max_cycle;Signal;HPM_P1;HPM_P2
2022/06/24 00:00:44;;;;;;;12.43;6.78;;;22.70;99.90;;;;;;5052433;28;20676;-66
2022/06/24 00:03:17;;;;;;;11.88;6.72;;;22.80;99.90;;;;;;5053457;28;20175;-66
2022/06/24 00:05:43;;;;;;;10.02;6.03;;;22.80;99.90;;;;;;5053606;28;20233;-66
2022/06/24 00:08:09;;;;;;;15.65;6.53;;;22.80;99.90;;;;;;5053647;28;20668;-67
2022/06/24 00:10:36;;;;;;;8.88;6.53;;;22.80;99.90;;;;;;5053598;28;20198;-66
2022/06/24 00:13:04;;;;;;;11.38;6.93;;;22.80;99.90;;;;;;5053916;28;20167;-66
2022/06/24 00:15:32;;;;;;;15.23;6.82;;;22.80;99.90;;;;;;5053231;28;20233;-66
2022/06/24 00:18:15;;;;;;;6.93;6.03;;;22.80;99.90;;;;;;5053392;28;20285;-66
2022/06/24 00:20:42;;;;;;;10.55;6.85;;;22.80;99.90;;;;;;5033662;28;20703;-66
2022/06/24 00:23:09;;;;;;;7.55;6.22;;;22.80;99.90;;;;;;5046242;28;20193;-66
2022/06/24 00:25:38;;;;;;;9.32;6.75;;;22.80;99.90;;;;;;5053123;28;20214;-66
2022/06/24 00:28:09;;;;;;;9.57;6.43;;;22.90;99.90;;;;;;5053495;28;20233;-66
2022/06/24 00:30:37;;;;;;;10.50;6.95;;;22.90;99.90;;;;;;5053159;28;20221;-65
2022/06/24 00:33:16;;;;;;;13.38;7.53;;;22.90;99.90;;;;;;5053225;28;20535;-67
2022/06/24 00:35:47;;;;;;;14.32;8.32;;;22.70;99.90;;;;;;5040002;28;20175;-69
2022/06/24 00:38:25;;;;;;;12.05;10.15;;;22.40;99.90;;;;;;5053194;28;20179;-68
2022/06/24 00:41:06;;;;;;;12.30;8.23;;;21.80;99.90;;;;;;5052907;28;20569;-69
2022/06/24 00:43:43;;;;;;;9.05;8.25;;;21.40;99.90;;;;;;5052952;28;20269;-68
2022/06/24 00:46:26;;;;;;;15.02;11.80;;;21.10;99.90;;;;;;5052946;28;20201;-67
2022/06/24 00:48:54;;;;;;;12.45;8.98;;;21.00;99.90;;;;;;5052812;28;20261;-68
2022/06/24 00:51:22;;;;;;;12.50;10.37;;;20.80;99.90;;;;;;5053229;28;20616;-69
2022/06/24 00:53:52;;;;;;;16.88;9.95;;;20.80;99.90;;;;;;5052602;28;20573;-68
2022/06/24 00:56:21;;;;;;;12.50;11.20;;;20.80;99.90;;;;;;5034865;28;20182;-69
2022/06/24 00:59:01;;;;;;;11.07;9.97;;;20.80;99.90;;;;;;5036871;28;20708;-69
2022/06/24 01:01:26;;;;;;;12.18;10.63;;;20.80;99.90;;;;;;5051553;28;20186;-69
2022/06/24 01:03:54;;;;;;;17.97;11.60;;;20.70;99.90;;;;;;5034170;28;20178;-69
2022/06/24 01:06:20;;;;;;;13.67;12.23;;;20.60;99.90;;;;;;5052580;28;20238;-68
2022/06/24 01:08:45;;;;;;;14.23;11.17;;;20.60;99.90;;;;;;5051980;28;20205;-68
2022/06/24 01:11:11;;;;;;;16.27;13.23;;;20.60;99.90;;;;;;5052863;28;20218;-70
2022/06/24 01:13:37;;;;;;;13.17;11.97;;;20.50;99.90;;;;;;5034090;28;20181;-69
2022/06/24 01:16:03;;;;;;;16.87;12.37;;;20.50;99.90;;;;;;5052377;28;20650;-69
2022/06/24 01:18:28;;;;;;;16.63;12.87;;;20.40;99.90;;;;;;5052377;28;20198;-69
2022/06/24 01:20:54;;;;;;;13.57;11.00;;;20.50;99.90;;;;;;5052176;28;20202;-69
2022/06/24 01:23:24;;;;;;;11.87;9.77;;;20.40;99.90;;;;;;5052219;28;20198;-69
2022/06/24 01:25:51;;;;;;;15.27;12.17;;;20.40;99.90;;;;;;5052297;28;20655;-69
2022/06/24 01:28:16;;;;;;;16.93;11.50;;;20.40;99.90;;;;;;5051838;28;20259;-69
2022/06/24 01:30:42;;;;;;;12.03;10.73;;;20.40;99.90;;;;;;5052163;28;20198;-68
2022/06/24 01:33:07;;;;;;;16.53;10.80;;;20.30;99.90;;;;;;5052022;28;20319;-68
2022/06/24 01:35:33;;;;;;;12.20;11.17;;;20.30;99.90;;;;;;5051933;28;20171;-68
2022/06/24 01:37:59;;;;;;;11.23;10.10;;;20.10;99.90;;;;;;5051956;28;20206;-69
2022/06/24 01:40:24;;;;;;;9.43;8.53;;;20.00;99.90;;;;;;5051869;28;20207;-67
2022/06/24 01:42:50;;;;;;;10.07;9.17;;;19.90;99.90;;;;;;5051858;28;20213;-69
2022/06/24 01:45:17;;;;;;;10.70;9.87;;;19.70;99.90;;;;;;5051601;28;20187;-68
2022/06/24 01:47:43;;;;;;;9.00;7.97;;;19.70;99.90;;;;;;5052186;28;20202;-66
2022/06/24 01:50:08;;;;;;;8.60;7.80;;;19.60;99.90;;;;;;5051364;28;20281;-68
2022/06/24 01:52:34;;;;;;;12.20;11.13;;;19.50;99.90;;;;;;5052149;28;20632;-67
2022/06/24 01:54:59;;;;;;;10.90;9.83;;;19.50;99.90;;;;;;5051425;28;20163;-68
2022/06/24 01:57:25;;;;;;;10.43;7.77;;;19.50;99.90;;;;;;5051604;28;20521;-68
2022/06/24 01:59:51;;;;;;;8.40;7.83;;;19.50;99.90;;;;;;5049806;28;20594;-68
2022/06/24 02:02:17;;;;;;;10.10;9.30;;;19.50;99.90;;;;;;5051330;28;20183;-67
2022/06/24 02:04:45;;;;;;;9.60;8.77;;;19.40;99.90;;;;;;5051179;28;20174;-69
2022/06/24 02:07:11;;;;;;;8.77;8.07;;;19.40;99.90;;;;;;5033563;28;20308;-68
2022/06/24 02:13:26;;;;;;;9.67;8.80;;;19.40;99.90;;;;;;5051511;28;20289;-69
2022/06/24 02:15:07;;;;;;;8.43;7.80;;;19.50;99.90;;;;;;5050958;28;20197;-68
2022/06/24 02:17:32;;;;;;;9.20;8.27;;;19.40;99.90;;;;;;5051634;28;20187;-66
2022/06/24 02:19:58;;;;;;;8.80;8.03;;;19.40;99.90;;;;;;5050774;28;20217;-68
2022/06/24 02:22:23;;;;;;;11.73;8.90;;;19.40;99.90;;;;;;5051039;28;20178;-67
2022/06/24 02:24:49;;;;;;;8.27;7.57;;;19.30;99.90;;;;;;5050617;28;20175;-68
2022/06/24 02:27:14;;;;;;;8.83;8.23;;;19.30;99.90;;;;;;5051382;28;20206;-67
2022/06/24 02:29:40;;;;;;;10.10;9.10;;;19.30;99.90;;;;;;5051450;28;20198;-68
2022/06/24 02:32:06;;;;;;;10.37;8.13;;;19.30;99.90;;;;;;5051248;28;20235;-66
2022/06/24 02:34:31;;;;;;;9.83;9.13;;;19.30;99.90;;;;;;5050853;28;20185;-66
2022/06/24 02:36:57;;;;;;;12.37;11.37;;;19.30;99.90;;;;;;5051087;28;20317;-68
2022/06/24 02:39:23;;;;;;;10.50;9.00;;;19.30;99.90;;;;;;5050722;28;20206;-67
2022/06/24 02:41:48;;;;;;;10.17;9.37;;;19.30;99.90;;;;;;5051126;28;20191;-67
2022/06/24 02:44:14;;;;;;;11.13;10.23;;;19.30;99.90;;;;;;5050753;28;20265;-67
2022/06/24 02:46:40;;;;;;;11.47;10.37;;;19.30;99.90;;;;;;5051025;28;20205;-67
2022/06/24 02:49:05;;;;;;;11.87;10.80;;;19.20;99.90;;;;;;5033255;28;20178;-67
2022/06/24 02:51:31;;;;;;;13.60;12.40;;;19.20;99.90;;;;;;5051119;28;20717;-68
2022/06/24 02:53:56;;;;;;;13.70;12.30;;;19.20;99.90;;;;;;5050950;28;20174;-68
2022/06/24 02:56:22;;;;;;;16.37;14.67;;;19.20;99.90;;;;;;5032969;28;20183;-67
2022/06/24 02:58:48;;;;;;;14.27;12.77;;;19.20;99.90;;;;;;5051046;28;20286;-68
2022/06/24 03:01:14;;;;;;;12.30;10.27;;;19.30;99.90;;;;;;5050168;28;20256;-68
2022/06/24 03:03:40;;;;;;;16.90;10.80;;;19.30;99.90;;;;;;5051037;28;20645;-67
2022/06/24 03:06:06;;;;;;;12.23;11.13;;;19.30;99.90;;;;;;5050549;28;20564;-68
2022/06/24 03:08:32;;;;;;;11.93;10.83;;;19.40;99.90;;;;;;5051029;28;20666;-68
2022/06/24 03:10:58;;;;;;;13.47;12.27;;;19.40;99.90;;;;;;5050646;28;20619;-68
2022/06/24 03:13:24;;;;;;;16.10;14.53;;;19.40;99.90;;;;;;5050325;28;20179;-67
2022/06/24 03:15:50;;;;;;;14.33;12.37;;;19.50;99.90;;;;;;5050882;28;20189;-68
2022/06/24 03:18:16;;;;;;;13.83;12.20;;;19.60;99.90;;;;;;5050520;28;20179;-68
2022/06/24 03:20:42;;;;;;;13.87;12.47;;;19.70;99.90;;;;;;5050523;28;20210;-67
2022/06/24 03:23:08;;;;;;;13.50;12.10;;;19.70;99.90;;;;;;5050708;28;20286;-67
2022/06/24 03:25:33;;;;;;;15.03;13.63;;;19.80;99.90;;;;;;5050550;28;20227;-67
2022/06/24 03:28:04;;;;;;;13.67;12.43;;;19.80;99.90;;;;;;5050640;28;20293;-67
2022/06/24 03:30:31;;;;;;;14.60;12.97;;;19.90;99.90;;;;;;5050840;28;20302;-67
2022/06/24 03:32:56;;;;;;;13.10;11.83;;;19.80;99.90;;;;;;5052799;28;20179;-67
2022/06/24 03:35:22;;;;;;;16.83;13.70;;;19.80;99.90;;;;;;5053946;28;20212;-68
2022/06/24 03:37:48;;;;;;;13.80;12.47;;;19.80;99.90;;;;;;5054751;28;20227;-67
2022/06/24 03:40:13;;;;;;;16.77;14.33;;;19.90;99.90;;;;;;5054022;28;20203;-67
2022/06/24 03:42:39;;;;;;;15.50;14.03;;;19.90;99.90;;;;;;5054376;28;20562;-68
2022/06/24 03:45:06;;;;;;;14.23;12.47;;;20.00;99.90;;;;;;5053874;28;20179;-68
2022/06/24 03:47:32;;;;;;;13.53;12.17;;;20.00;99.90;;;;;;5053985;28;20207;-66
2022/06/24 03:49:57;;;;;;;13.03;11.70;;;19.90;99.90;;;;;;5054070;28;20286;-68
2022/06/24 03:52:23;;;;;;;14.30;12.83;;;19.90;99.90;;;;;;5035922;28;20334;-67
2022/06/24 03:54:48;;;;;;;14.30;13.03;;;19.90;99.90;;;;;;5053596;28;20667;-67
2022/06/24 03:57:14;;;;;;;14.33;13.10;;;19.90;99.90;;;;;;5054440;28;20174;-67
2022/06/24 03:59:40;;;;;;;15.57;13.97;;;19.90;99.90;;;;;;5053573;28;20732;-66
2022/06/24 04:02:05;;;;;;;17.27;13.17;;;19.90;99.90;;;;;;5053525;28;20193;-67
2022/06/24 04:04:31;;;;;;;13.63;12.33;;;19.80;99.90;;;;;;5053723;28;20185;-67
2022/06/24 04:06:57;;;;;;;13.13;11.93;;;19.80;99.90;;;;;;5053634;28;20236;-67
2022/06/24 04:09:22;;;;;;;12.53;11.43;;;19.70;99.90;;;;;;5053981;28;20204;-66
2022/06/24 04:11:48;;;;;;;14.43;13.33;;;19.80;99.90;;;;;;5053815;28;20662;-68
2022/06/24 04:14:14;;;;;;;16.23;15.03;;;19.80;99.90;;;;;;5053118;28;20504;-68
2022/06/24 04:16:40;;;;;;;14.88;13.63;;;19.80;99.90;;;;;;5053756;28;20273;-68
2022/06/24 04:21:33;;;;;;;15.40;14.03;;;19.80;99.90;;;;;;5074455;22;20284;-65
2022/06/24 04:23:59;;;;;;;14.73;13.60;;;19.90;99.90;;;;;;5053211;28;20179;-65
2022/06/24 04:26:25;;;;;;;14.27;13.17;;;19.90;99.90;;;;;;5053142;28;20199;-65
2022/06/24 04:28:51;;;;;;;14.03;12.73;;;19.80;99.90;;;;;;5053287;28;20175;-65
2022/06/24 04:31:16;;;;;;;13.93;12.50;;;19.90;99.90;;;;;;5053478;28;20202;-66
2022/06/24 04:33:42;;;;;;;13.57;12.27;;;20.00;99.90;;;;;;5052918;28;20179;-65
2022/06/24 04:36:12;;;;;;;17.80;10.43;;;20.00;99.90;;;;;;5053247;28;20186;-65
2022/06/24 04:38:38;;;;;;;13.13;11.80;;;20.00;99.90;;;;;;5053299;28;20221;-65
2022/06/24 04:41:13;;;;;;;14.30;12.73;;;20.00;99.90;;;;;;5053144;28;20282;-65
2022/06/24 04:43:38;;;;;;;16.30;14.83;;;20.00;99.90;;;;;;5051894;28;20166;-65
2022/06/24 04:46:04;;;;;;;13.73;12.43;;;20.10;99.90;;;;;;5053527;28;20258;-65
2022/06/24 04:48:30;;;;;;;15.90;14.75;;;20.10;99.90;;;;;;5052932;28;20210;-65
2022/06/24 04:50:56;;;;;;;13.23;11.97;;;20.10;99.90;;;;;;5052756;28;20210;-65
2022/06/24 04:53:22;;;;;;;13.83;12.57;;;20.00;99.90;;;;;;5052993;28;20540;-66
2022/06/24 04:55:48;;;;;;;12.80;11.57;;;20.00;99.90;;;;;;5052855;28;20178;-65
2022/06/24 04:58:14;;;;;;;12.30;10.93;;;20.10;99.90;;;;;;5053077;28;20175;-65
2022/06/24 05:00:39;;;;;;;11.93;10.70;;;20.10;99.90;;;;;;5052220;28;20206;-65
2022/06/24 05:03:05;;;;;;;12.97;9.33;;;20.10;99.90;;;;;;5052677;28;20178;-65
2022/06/24 05:05:31;;;;;;;10.67;9.50;;;20.10;99.90;;;;;;5052502;28;20183;-65
2022/06/24 05:07:56;;;;;;;12.07;9.53;;;20.10;99.90;;;;;;5052640;28;20253;-65
2022/06/24 05:10:22;;;;;;;10.60;9.70;;;20.10;99.90;;;;;;5052643;28;20198;-65
2022/06/24 05:12:48;;;;;;;9.67;8.83;;;20.10;99.90;;;;;;5052392;28;20177;-65
2022/06/24 05:15:13;;;;;;;11.17;9.27;;;20.10;99.90;;;;;;5052372;28;20197;-65
2022/06/24 05:17:39;;;;;;;12.43;9.93;;;20.10;99.90;;;;;;5052630;28;20652;-65
2022/06/24 05:20:05;;;;;;;9.77;8.80;;;20.10;99.90;;;;;;5052197;28;20590;-65
2022/06/24 05:22:30;;;;;;;10.93;9.27;;;20.10;99.90;;;;;;5052683;28;20175;-65
2022/06/24 05:24:56;;;;;;;10.77;9.97;;;20.10;99.90;;;;;;5052012;28;20258;-65
2022/06/24 05:27:22;;;;;;;9.37;8.73;;;20.10;99.90;;;;;;5052601;28;20206;-65
2022/06/24 05:29:47;;;;;;;9.40;8.60;;;20.20;99.90;;;;;;5052030;28;20244;-67
2022/06/24 05:32:13;;;;;;;9.30;8.50;;;20.20;99.90;;;;;;5051968;28;20794;-65
2022/06/24 05:34:38;;;;;;;9.40;8.53;;;20.20;99.90;;;;;;5051921;28;20178;-65
2022/06/24 05:37:04;;;;;;;8.97;8.10;;;20.20;99.90;;;;;;5051943;28;20174;-65
2022/06/24 05:39:30;;;;;;;11.10;8.60;;;20.20;99.90;;;;;;5052405;28;20718;-65
2022/06/24 05:41:55;;;;;;;10.83;9.70;;;20.20;99.90;;;;;;5051961;28;20185;-65
2022/06/24 05:44:21;;;;;;;9.80;8.90;;;20.20;99.90;;;;;;5051694;28;20232;-65
2022/06/24 05:46:46;;;;;;;11.33;10.23;;;20.30;99.90;;;;;;5051872;28;20194;-65
2022/06/24 05:49:12;;;;;;;10.03;9.13;;;20.30;99.90;;;;;;5051869;28;20266;-65
2022/06/24 05:51:37;;;;;;;11.93;9.67;;;20.40;99.90;;;;;;5052101;28;20178;-65
2022/06/24 05:56:48;;;;;;;13.10;12.23;;;20.50;99.90;;;;;;5051386;28;20189;-65
2022/06/24 05:59:14;;;;;;;13.93;12.80;;;20.50;99.90;;;;;;5051595;28;20655;-66
2022/06/24 06:01:40;;;;;;;12.47;11.03;;;20.60;99.90;;;;;;5050850;28;20175;-66
2022/06/24 06:04:06;;;;;;;12.23;10.90;;;20.70;99.90;;;;;;5051541;28;20194;-66
2022/06/24 06:06:31;;;;;;;12.03;10.27;;;20.80;99.90;;;;;;5051492;28;20542;-66
2022/06/24 06:09:00;;;;;;;14.83;11.70;;;20.90;99.90;;;;;;5033645;28;20551;-66
2022/06/24 06:11:26;;;;;;;14.90;12.83;;;21.00;99.90;;;;;;5051531;28;20456;-66
2022/06/24 06:13:53;;;;;;;9.87;8.87;;;21.00;99.90;;;;;;5050328;28;20266;-67
2022/06/24 06:16:21;;;;;;;11.50;10.30;;;21.10;99.90;;;;;;5050001;28;20171;-66
2022/06/24 06:18:48;;;;;;;9.10;8.30;;;21.20;99.90;;;;;;5051039;28;20174;-66
2022/06/24 06:21:14;;;;;;;12.30;10.97;;;21.20;99.90;;;;;;5051383;28;20259;-66
2022/06/24 06:23:41;;;;;;;12.18;11.00;;;21.30;99.90;;;;;;5051458;28;20253;-66
2022/06/24 06:26:08;;;;;;;9.65;8.68;;;21.40;99.90;;;;;;5051662;28;20187;-67
2022/06/24 06:28:34;;;;;;;12.77;9.13;;;21.60;99.90;;;;;;5051897;28;20335;-67
2022/06/24 06:31:00;;;;;;;8.80;7.90;;;21.60;99.90;;;;;;5033752;28;20281;-67
2022/06/24 06:33:26;;;;;;;11.45;8.77;;;21.70;99.90;;;;;;5051147;28;20181;-68
2022/06/24 06:35:52;;;;;;;8.93;8.13;;;21.70;99.90;;;;;;5051137;28;20386;-65
2022/06/24 06:38:18;;;;;;;9.93;7.68;;;21.80;99.90;;;;;;5051043;28;20256;-66
2022/06/24 06:40:43;;;;;;;9.15;7.90;;;21.90;99.90;;;;;;5051108;28;20281;-65
2022/06/24 06:43:10;;;;;;;8.82;7.78;;;21.90;99.90;;;;;;5050864;28;20226;-66
2022/06/24 06:45:37;;;;;;;7.88;7.35;;;22.00;99.90;;;;;;5050760;28;20182;-65
2022/06/24 06:48:03;;;;;;;9.07;7.70;;;22.00;99.90;;;;;;5050782;28;20672;-67
2022/06/24 06:50:29;;;;;;;7.88;7.18;;;22.10;99.90;;;;;;5050908;28;20273;-66
2022/06/24 06:52:55;;;;;;;7.90;6.50;;;22.10;99.90;;;;;;5051077;28;20632;-66
2022/06/24 06:55:21;;;;;;;9.32;6.65;;;22.10;99.90;;;;;;5050503;28;20175;-67
2022/06/24 06:57:46;;;;;;;7.65;7.05;;;22.00;99.90;;;;;;5050966;28;20243;-66
2022/06/24 07:00:13;;;;;;;6.05;5.55;;;21.90;99.90;;;;;;5051013;28;20203;-65
2022/06/24 07:02:39;;;;;;;5.35;4.95;;;21.60;99.90;;;;;;5050962;28;20228;-65
2022/06/24 07:05:06;;;;;;;5.90;5.45;;;21.10;99.90;;;;;;5050600;28;20171;-65
2022/06/24 07:07:31;;;;;;;6.73;6.13;;;20.60;99.90;;;;;;5052407;28;20252;-67
2022/06/24 07:09:58;;;;;;;6.87;6.43;;;20.30;99.90;;;;;;5055044;28;20210;-68
2022/06/24 07:12:24;;;;;;;6.73;5.73;;;19.90;99.90;;;;;;5055491;28;20174;-68
2022/06/24 07:14:50;;;;;;;7.07;6.47;;;19.60;99.90;;;;;;5036638;28;20232;-69
2022/06/24 07:17:16;;;;;;;7.87;7.17;;;19.40;99.90;;;;;;5054848;28;20261;-68
2022/06/24 07:19:42;;;;;;;12.27;7.73;;;19.30;99.90;;;;;;5054701;28;20684;-70
2022/06/24 07:22:08;;;;;;;10.47;6.57;;;19.00;99.90;;;;;;5055123;28;20260;-70
2022/06/24 07:24:34;;;;;;;7.43;6.73;;;18.80;99.90;;;;;;5055274;28;20191;-68
2022/06/24 07:27:08;;;;;;;7.57;6.97;;;18.70;99.90;;;;;;5054487;28;20190;-67
2022/06/24 07:29:34;;;;;;;7.80;6.67;;;18.50;99.90;;;;;;5054701;28;20486;-67
2022/06/24 07:32:01;;;;;;;8.23;7.43;;;18.50;99.90;;;;;;5054405;28;20293;-67
2022/06/24 07:34:27;;;;;;;9.07;8.37;;;18.50;99.90;;;;;;5036173;28;20171;-68
2022/06/24 07:36:53;;;;;;;8.47;7.83;;;18.50;99.90;;;;;;5054816;28;20179;-67
2022/06/24 07:39:19;;;;;;;8.37;7.70;;;18.50;99.90;;;;;;5054583;28;20272;-68
2022/06/24 07:41:45;;;;;;;9.67;8.90;;;18.50;99.90;;;;;;5054581;28;20237;-68
2022/06/24 07:44:10;;;;;;;9.33;8.63;;;18.60;99.90;;;;;;5053587;28;20175;-68
2022/06/24 07:46:36;;;;;;;10.17;9.37;;;18.70;99.90;;;;;;5054031;28;20199;-68
2022/06/24 07:49:02;;;;;;;10.13;9.10;;;18.80;99.90;;;;;;5053810;28;20186;-67
2022/06/24 07:51:27;;;;;;;10.43;9.33;;;18.90;99.90;;;;;;5054463;28;20241;-68
2022/06/24 07:53:53;;;;;;;9.90;8.90;;;18.90;99.90;;;;;;5054592;28;20636;-69
2022/06/24 07:59:04;;;;;;;10.07;9.17;;;19.00;99.90;;;;;;5052158;28;20643;-69
2022/06/24 08:01:29;;;;;;;11.33;10.10;;;19.00;99.90;;;;;;5035139;28;20194;-69
2022/06/24 08:03:55;;;;;;;10.67;9.87;;;19.00;99.90;;;;;;5053665;28;20185;-68
2022/06/24 08:06:21;;;;;;;15.70;10.80;;;19.10;99.90;;;;;;5053843;28;20226;-68
2022/06/24 08:08:46;;;;;;;13.10;9.73;;;19.10;99.90;;;;;;5036630;28;20171;-68
2022/06/24 08:11:12;;;;;;;12.00;10.03;;;19.10;99.90;;;;;;5053884;28;20281;-68
2022/06/24 08:13:38;;;;;;;12.60;11.37;;;19.10;99.90;;;;;;5035304;28;20221;-68
2022/06/24 08:16:04;;;;;;;13.03;11.73;;;19.20;99.90;;;;;;5053552;28;20183;-66
2022/06/24 08:18:29;;;;;;;14.80;10.97;;;19.20;99.90;;;;;;5052472;28;20175;-67
2022/06/24 08:20:55;;;;;;;14.97;12.07;;;19.10;99.90;;;;;;5053561;28;20211;-69
2022/06/24 08:23:20;;;;;;;13.37;12.03;;;19.10;99.90;;;;;;5053182;28;20620;-67
2022/06/24 08:25:46;;;;;;;14.10;12.23;;;19.20;99.90;;;;;;5053225;28;20178;-66
2022/06/24 08:28:12;;;;;;;14.53;12.27;;;19.20;99.90;;;;;;5035874;28;20211;-66
2022/06/24 08:30:37;;;;;;;13.40;12.13;;;19.20;99.90;;;;;;5053315;28;20694;-68
2022/06/24 08:33:03;;;;;;;14.37;11.50;;;19.30;99.90;;;;;;5053380;28;20178;-66
2022/06/24 08:35:29;;;;;;;11.73;10.57;;;19.30;99.90;;;;;;5053140;28;20277;-66
2022/06/24 08:37:56;;;;;;;13.80;10.10;;;19.30;99.90;;;;;;5053449;28;20543;-66
2022/06/24 08:40:24;;;;;;;9.37;8.60;;;19.30;99.90;;;;;;5053376;28;20210;-66
2022/06/24 08:42:54;;;;;;;12.33;11.37;;;19.20;99.90;;;;;;5033560;28;20175;-66
2022/06/24 08:45:20;;;;;;;10.20;9.37;;;19.20;99.90;;;;;;5050675;28;20243;-68
2022/06/24 08:47:47;;;;;;;13.33;10.67;;;19.00;99.90;;;;;;5053392;28;20207;-67
2022/06/24 08:50:12;;;;;;;10.60;9.50;;;19.10;99.90;;;;;;5053090;28;20197;-67
2022/06/24 08:52:45;;;;;;;11.73;10.27;;;19.10;99.90;;;;;;5053285;28;20609;-67
2022/06/24 08:55:16;;;;;;;11.67;10.60;;;19.20;99.90;;;;;;5052642;28;20265;-65
2022/06/24 08:57:41;;;;;;;11.23;10.37;;;19.30;99.90;;;;;;5053481;28;20183;-66
2022/06/24 09:00:08;;;;;;;10.93;9.93;;;19.40;99.90;;;;;;5052704;28;20745;-66
2022/06/24 09:02:33;;;;;;;12.50;11.63;;;19.40;99.90;;;;;;5035364;28;20523;-66
2022/06/24 09:05:00;;;;;;;13.77;12.77;;;19.60;99.90;;;;;;5052559;28;20261;-66
2022/06/24 09:07:28;;;;;;;10.07;9.17;;;19.70;99.90;;;;;;5053198;28;20261;-66
2022/06/24 09:10:04;;;;;;;11.53;10.53;;;19.70;99.90;;;;;;5052462;28;20278;-66
2022/06/24 09:12:38;;;;;;;13.37;9.77;;;19.80;99.90;;;;;;5052681;28;20229;-66
2022/06/24 09:15:06;;;;;;;10.97;9.90;;;19.80;99.90;;;;;;5052038;28;20621;-66
2022/06/24 09:17:32;;;;;;;12.53;10.63;;;19.90;99.90;;;;;;5052856;28;20198;-66
2022/06/24 09:20:07;;;;;;;11.80;10.30;;;20.10;99.90;;;;;;5052179;28;20260;-66
2022/06/24 09:22:33;;;;;;;11.30;10.30;;;20.10;99.90;;;;;;5052796;28;20631;-67
2022/06/24 09:25:01;;;;;;;11.37;10.37;;;20.30;99.90;;;;;;5051252;28;20236;-66
2022/06/24 09:27:26;;;;;;;11.07;10.10;;;20.50;99.90;;;;;;5052605;28;20202;-66
2022/06/24 09:29:52;;;;;;;13.27;12.30;;;20.60;99.90;;;;;;5051748;28;20274;-66
2022/06/24 09:32:18;;;;;;;9.70;8.90;;;20.90;99.90;;;;;;5052069;28;20183;-66
2022/06/24 09:35:10;;;;;;;12.03;10.93;;;20.90;99.90;;;;;;5052136;28;20166;-67
2022/06/24 09:37:38;;;;;;;10.03;9.03;;;20.90;99.90;;;;;;5047472;28;20194;-68
2022/06/24 09:40:17;;;;;;;10.27;8.90;;;21.20;99.90;;;;;;5052153;28;20195;-67
2022/06/24 09:42:43;;;;;;;11.10;10.10;;;21.50;99.90;;;;;;5052279;28;20632;-66
2022/06/24 09:45:09;;;;;;;8.93;8.02;;;22.20;99.90;;;;;;5033921;28;20221;-66
2022/06/24 09:47:41;;;;;;;8.10;7.40;;;23.00;99.90;;;;;;5051932;28;20293;-67
2022/06/24 09:50:07;;;;;;;8.70;8.00;;;23.40;99.90;;;;;;5051864;28;20220;-67
2022/06/24 09:52:33;;;;;;;9.98;8.15;;;24.10;99.90;;;;;;5051876;28;20301;-67
2022/06/24 09:55:01;;;;;;;8.35;7.75;;;24.90;99.90;;;;;;5051629;28;20584;-67
2022/06/24 09:57:28;;;;;;;7.30;6.78;;;25.90;99.90;;;;;;5051400;28;20256;-67
2022/06/24 10:02:39;;;;;;;7.07;6.57;;;27.20;99.90;;;;;;5052203;28;20178;-68
2022/06/24 10:05:09;;;;;;;6.65;6.15;;;27.80;99.90;;;;;;5051367;28;20277;-67
2022/06/24 10:07:36;;;;;;;6.07;5.47;;;28.30;99.90;;;;;;5051885;28;20247;-68
2022/06/24 10:10:05;;;;;;;5.40;4.90;;;28.50;99.90;;;;;;5050992;28;20288;-68
2022/06/24 10:12:40;;;;;;;5.32;4.93;;;28.50;99.90;;;;;;5051749;28;20174;-66
2022/06/24 10:15:06;;;;;;;5.93;5.40;;;28.10;99.90;;;;;;5051639;28;20177;-66
2022/06/24 10:17:34;;;;;;;5.20;4.80;;;27.80;99.90;;;;;;5051806;28;20207;-66
2022/06/24 10:20:01;;;;;;;5.90;5.40;;;27.70;99.90;;;;;;5075152;22;20535;-69
2022/06/24 10:22:59;;;;;;;7.78;5.85;;;27.40;99.90;;;;;;5050636;28;20206;-69
2022/06/24 10:25:46;;;;;;;5.35;4.90;;;27.50;99.90;;;;;;5028239;28;20206;-69
2022/06/24 10:28:12;;;;;;;5.72;4.13;;;28.30;99.90;;;;;;5051544;28;20246;-68
2022/06/24 10:30:40;;;;;;;4.78;4.40;;;28.40;99.90;;;;;;5048394;28;20291;-68
2022/06/24 10:33:21;;;;;;;4.45;4.15;;;27.90;99.90;;;;;;5051299;28;20167;-69
2022/06/24 10:35:56;;;;;;;4.78;4.22;;;28.00;99.90;;;;;;5051620;28;20175;-69
2022/06/24 10:38:23;;;;;;;4.55;4.25;;;27.80;99.90;;;;;;5051636;28;20517;-69
2022/06/24 10:40:51;;;;;;;5.32;4.93;;;27.70;99.90;;;;;;5051303;28;20198;-69
2022/06/24 10:43:43;;;;;;;5.53;5.03;;;27.90;99.90;;;;;;5050795;28;20190;-69
2022/06/24 10:46:18;;;;;;;5.05;4.75;;;28.50;99.90;;;;;;5051613;28;20651;-69
2022/06/24 10:48:43;;;;;;;6.60;4.70;;;28.60;99.90;;;;;;5051383;28;20198;-68
2022/06/24 10:51:17;;;;;;;5.25;4.78;;;28.80;99.90;;;;;;5051150;28;20194;-69
2022/06/24 10:54:01;;;;;;;5.07;4.75;;;29.00;99.90;;;;;;5051235;28;20526;-69
2022/06/24 10:56:53;;;;;;;5.57;5.07;;;29.30;99.90;;;;;;5051457;28;20171;-69
2022/06/24 10:59:20;;;;;;;5.40;5.00;;;29.00;99.90;;;;;;5048525;28;20197;-67
2022/06/24 11:01:48;;;;;;;6.20;5.57;;;28.70;99.90;;;;;;5039262;28;20687;-67
2022/06/24 11:04:17;;;;;;;5.25;4.63;;;28.40;99.90;;;;;;5031288;28;20175;-67
2022/06/24 11:07:21;;;;;;;5.45;5.03;;;28.00;99.90;;;;;;5031863;28;20203;-69
2022/06/24 11:09:47;;;;;;;7.80;6.97;;;27.40;99.90;;;;;;5031405;28;20167;-69
2022/06/24 11:12:30;;;;;;;13.68;12.90;;;26.80;99.90;;;;;;5028986;28;20632;-69
2022/06/24 11:14:56;;;;;;;14.43;13.48;;;26.50;99.90;;;;;;5031010;28;20255;-69
2022/06/24 11:17:25;;;;;;;9.55;8.82;;;26.30;99.90;;;;;;5031132;28;20194;-67
2022/06/24 11:19:52;;;;;;;9.55;8.75;;;26.30;99.90;;;;;;5031070;28;20192;-67
2022/06/24 11:22:18;;;;;;;8.82;8.00;;;26.10;99.90;;;;;;5031461;28;20183;-68
2022/06/24 11:24:47;;;;;;;8.20;7.43;;;26.10;99.90;;;;;;5030291;28;20171;-68
2022/06/24 11:27:13;;;;;;;6.47;5.97;;;26.10;99.90;;;;;;5031090;28;20352;-68
2022/06/24 11:29:53;;;;;;;7.55;7.05;;;26.10;99.90;;;;;;5029929;28;20270;-68
2022/06/24 11:32:19;;;;;;;5.97;5.40;;;26.10;99.90;;;;;;5031134;28;20233;-67
2022/06/24 11:34:45;;;;;;;7.70;7.18;;;26.10;99.90;;;;;;5030824;28;20180;-68
2022/06/24 11:37:12;;;;;;;6.60;6.28;;;26.40;99.90;;;;;;5030833;28;20179;-67
2022/06/24 11:39:37;;;;;;;5.47;4.93;;;26.70;99.90;;;;;;5031016;28;20172;-68
2022/06/24 11:42:03;;;;;;;4.65;3.88;;;27.10;99.90;;;;;;5031001;28;20302;-68
2022/06/24 11:44:38;;;;;;;4.63;4.22;;;27.50;99.90;;;;;;5030915;28;20178;-67
2022/06/24 11:47:05;;;;;;;4.75;4.30;;;27.60;99.90;;;;;;5030935;28;20238;-66
2022/06/24 11:49:32;;;;;;;4.10;3.80;;;27.50;99.90;;;;;;5031130;28;20266;-67
2022/06/24 11:51:58;;;;;;;4.75;4.30;;;26.90;99.90;;;;;;5027406;28;20192;-67
2022/06/24 11:54:29;;;;;;;5.68;5.28;;;26.30;99.90;;;;;;5019399;28;20180;-67
2022/06/24 11:56:55;;;;;;;5.82;5.43;;;26.10;99.90;;;;;;5034456;28;20250;-67
2022/06/24 11:59:22;;;;;;;5.35;4.95;;;26.00;99.90;;;;;;5025322;28;20188;-67
2022/06/24 12:01:49;;;;;;;7.50;4.90;;;26.10;99.90;;;;;;5014759;28;20199;-67
2022/06/24 12:04:15;;;;;;;4.72;4.32;;;26.60;99.90;;;;;;5013499;28;20180;-68
2022/06/24 12:06:42;;;;;;;4.32;4.00;;;27.50;99.90;;;;;;5013272;28;20180;-67
2022/06/24 12:09:09;;;;;;;4.30;4.00;;;28.30;99.90;;;;;;5033620;28;20190;-67
2022/06/24 12:11:39;;;;;;;4.72;4.30;;;28.50;99.90;;;;;;5034441;28;20191;-67
2022/06/24 12:14:10;;;;;;;5.50;4.30;;;28.60;99.90;;;;;;5015276;28;20258;-67
2022/06/24 12:16:56;;;;;;;4.28;3.90;;;28.80;99.90;;;;;;5014605;28;20183;-67
2022/06/24 12:19:23;;;;;;;4.65;4.28;;;29.10;99.90;;;;;;5014345;28;20542;-67
2022/06/24 12:21:48;;;;;;;4.95;4.65;;;29.10;99.90;;;;;;5014330;28;20212;-67
2022/06/24 12:24:24;;;;;;;4.63;4.30;;;29.00;99.90;;;;;;5015874;28;20267;-66
2022/06/24 12:26:58;;;;;;;4.45;3.95;;;29.00;99.90;;;;;;5014361;28;20249;-67
2022/06/24 12:29:32;;;;;;;4.32;4.03;;;29.10;99.90;;;;;;5033077;28;20180;-67
2022/06/24 12:31:59;;;;;;;3.80;3.50;;;29.50;99.90;;;;;;5025124;28;20180;-66
2022/06/24 12:34:25;;;;;;;4.40;4.07;;;30.40;99.90;;;;;;5019068;28;20194;-68
2022/06/24 12:37:00;;;;;;;3.95;3.45;;;30.70;99.90;;;;;;5033766;28;20644;-68
2022/06/24 12:39:34;;;;;;;3.55;3.30;;;31.00;99.90;;;;;;5029318;28;20176;-67
2022/06/24 12:42:00;;;;;;;4.82;4.20;;;31.00;99.90;;;;;;5014265;28;20187;-68
2022/06/24 12:44:55;;;;;;;4.20;3.80;;;30.70;99.90;;;;;;5012518;28;20172;-67
2022/06/24 12:53:00;;;;;;;4.85;3.60;;;31.20;99.90;;;;;;5013725;28;20548;-68
2022/06/24 12:55:27;;;;;;;3.85;3.47;;;31.30;99.90;;;;;;5024171;28;20207;-68
2022/06/24 12:57:53;;;;;;;4.28;3.45;;;31.40;99.90;;;;;;5033656;28;20175;-65
2022/06/24 13:00:19;;;;;;;3.78;3.47;;;31.40;99.90;;;;;;5022697;28;20196;-66